Navigator Spirit — C6WL4 — position and weather

sailwx.info

Track history (hours):
 
Tides and Currents Weather Stations Pressure Air Temp Water Temp Dewpoint Dewpoint Depression Visibility Wind Speed Wind Dir Waves Ship Positions

Navigator Spirit

Last reported at 2014-Jul-30 14:33 UTC. Time now 2014-Jul-31 01:29 UTC.
Position S 23°19' W 041°16'.

Length 241 m; draft 8.2 m.

Type: Tanker. MMSI: 309198000.

Date/timePositionNaut miles runAvg speedWind from/ knotsBaromVisibWave heightAir tempDewpointWater temp
2014-Jul-30 14:33S 23°19' W 041°16'0 0.0
2014-Jul-30 13:27S 23°19' W 041°16'0 0.0
2014-Jul-30 11:21S 23°19' W 041°16'0 0.0
2014-Jul-30 09:33S 23°19' W 041°16'0 0.0
2014-Jul-29 23:12S 23°19' W 041°16'0 0.0
2014-Jul-29 22:21S 23°19' W 041°16'0 0.0
2014-Jul-29 18:30S 23°19' W 041°16'0 0.3
2014-Jul-29 17:33S 23°19' W 041°16'2 1.5
2014-Jul-29 16:33S 23°17' W 041°17'1 1.3
2014-Jul-29 15:33S 23°16' W 041°18'3 2.9
2014-Jul-29 14:33S 23°13' W 041°18'1 1.1
2014-Jul-29 13:32S 23°12' W 041°18'1 1.1
2014-Jul-29 12:33S 23°13' W 041°18'1 1.1
2014-Jul-29 11:33S 23°14' W 041°18'1 1.1
2014-Jul-29 10:33S 23°16' W 041°18'2 1.6
2014-Jul-29 09:33S 23°15' W 041°20'3 3.2
2014-Jul-29 08:33S 23°14' W 041°23'4 3.6
2014-Jul-29 07:33S 23°10' W 041°24'2 1.5
2014-Jul-29 06:33S 23°11' W 041°25'2 1.2
2014-Jul-29 05:15S 23°13' W 041°26'5 0.3
2014-Jul-28 15:22S 23°16' W 041°23'2 1.1
2014-Jul-28 13:22S 23°17' W 041°21'1 1.2
2014-Jul-28 12:33S 23°17' W 041°20'1 0.8
2014-Jul-28 11:33S 23°17' W 041°19'1 1.2
2014-Jul-28 10:33S 23°18' W 041°19'5 5.3
2014-Jul-28 09:33S 23°16' W 041°25'  
2014-Jul-23 14:06S 23°05' W 041°29'815.4
2014-Jul-23 13:33S 23°01' W 041°20'  
Track history (hours):
 
Tides and Currents Weather Stations Pressure Air Temp Water Temp Dewpoint Dewpoint Depression Visibility Wind Speed Wind Dir Waves Ship Positions

Navigator Spirit

Last reported at 2014-Jul-30 14:33 UTC. Time now 2014-Jul-31 01:29 UTC.
Position S 23°19' W 041°16'.

Length 241 m; draft 8.2 m.

Type: Tanker. MMSI: 309198000.

Date/timePositionNaut miles runAvg speedWind from/ knotsBaromVisibWave heightAir tempDewpointWater temp
2014-Jul-30 14:33S 23°19' W 041°16'0 0.0
2014-Jul-30 13:27S 23°19' W 041°16'0 0.0
2014-Jul-30 11:21S 23°19' W 041°16'0 0.0
2014-Jul-30 09:33S 23°19' W 041°16'0 0.0
2014-Jul-29 23:12S 23°19' W 041°16'0 0.0
2014-Jul-29 22:21S 23°19' W 041°16'0 0.0
2014-Jul-29 18:30S 23°19' W 041°16'0 0.3
2014-Jul-29 17:33S 23°19' W 041°16'2 1.5
2014-Jul-29 16:33S 23°17' W 041°17'1 1.3
2014-Jul-29 15:33S 23°16' W 041°18'3 2.9
2014-Jul-29 14:33S 23°13' W 041°18'1 1.1
2014-Jul-29 13:32S 23°12' W 041°18'1 1.1
2014-Jul-29 12:33S 23°13' W 041°18'1 1.1
2014-Jul-29 11:33S 23°14' W 041°18'1 1.1
2014-Jul-29 10:33S 23°16' W 041°18'2 1.6
2014-Jul-29 09:33S 23°15' W 041°20'3 3.2
2014-Jul-29 08:33S 23°14' W 041°23'4 3.6
2014-Jul-29 07:33S 23°10' W 041°24'2 1.5
2014-Jul-29 06:33S 23°11' W 041°25'2 1.2
2014-Jul-29 05:15S 23°13' W 041°26'5 0.3
2014-Jul-28 15:22S 23°16' W 041°23'2 1.1
2014-Jul-28 13:22S 23°17' W 041°21'1 1.2
2014-Jul-28 12:33S 23°17' W 041°20'1 0.8
2014-Jul-28 11:33S 23°17' W 041°19'1 1.2
2014-Jul-28 10:33S 23°18' W 041°19'5 5.3
2014-Jul-28 09:33S 23°16' W 041°25'  
2014-Jul-23 14:06S 23°05' W 041°29'815.4
2014-Jul-23 13:33S 23°01' W 041°20'  

Dump ship's entire track history